createdAt,value
2022-12-11T00:00:05.052Z,95933.19
2022-12-11T00:02:31.951Z,95925.53
2022-12-11T00:04:58.423Z,95934.72
2022-12-11T00:07:25.609Z,95936.28
2022-12-11T00:09:52.423Z,95930.44
2022-12-11T00:12:18.902Z,95931.69
2022-12-11T00:14:45.352Z,95937.97
2022-12-11T00:17:11.865Z,95933.03
2022-12-11T00:19:38.345Z,95932.06
2022-12-11T00:22:04.781Z,95923.72
2022-12-11T00:24:31.210Z,95934.44
2022-12-11T00:26:57.669Z,95936.06
2022-12-11T00:29:24.109Z,95936.31
2022-12-11T00:31:50.640Z,95934.09
2022-12-11T00:34:17.208Z,95942.16
2022-12-11T00:36:43.689Z,95944.00
2022-12-11T00:39:10.129Z,95946.31
2022-12-11T00:41:36.623Z,95952.28
2022-12-11T00:44:03.132Z,95942.56
2022-12-11T00:46:29.673Z,95947.00
2022-12-11T00:48:56.105Z,95951.41
2022-12-11T00:51:22.570Z,95956.91
2022-12-11T00:53:49.041Z,95949.66
2022-12-11T00:56:17.308Z,95960.31
2022-12-11T00:58:44.198Z,95945.66
2022-12-11T01:01:11.800Z,95956.41
2022-12-11T01:03:38.384Z,95957.94
2022-12-11T01:06:05.540Z,95961.25
2022-12-11T01:08:38.147Z,95956.81
2022-12-11T01:11:07.340Z,95960.69
2022-12-11T01:13:33.800Z,95973.81
2022-12-11T01:16:00.242Z,95969.53
2022-12-11T01:18:26.800Z,95971.94
2022-12-11T01:20:53.288Z,95983.34
2022-12-11T01:23:19.756Z,95991.06
2022-12-11T01:25:46.184Z,95996.81
2022-12-11T01:28:12.630Z,96010.84
2022-12-11T01:30:40.822Z,96006.34
2022-12-11T01:33:07.330Z,96004.97
2022-12-11T01:35:33.956Z,96003.78
2022-12-11T01:38:00.397Z,95996.91
2022-12-11T01:40:26.908Z,96006.78
2022-12-11T01:42:53.364Z,96002.72
2022-12-11T01:45:31.337Z,96006.34
2022-12-11T01:48:03.793Z,96013.94
2022-12-11T01:50:31.769Z,96004.97
2022-12-11T01:52:58.493Z,96003.28
2022-12-11T01:55:25.245Z,96008.31
2022-12-11T01:57:52.390Z,96017.66
2022-12-11T02:00:19.746Z,96016.41
2022-12-11T02:02:46.328Z,96027.16
2022-12-11T02:05:13.194Z,96030.50
2022-12-11T02:07:59.376Z,96029.94
2022-12-11T02:10:31.749Z,96028.69
2022-12-11T02:13:06.525Z,96021.59
2022-12-11T02:15:35.765Z,96020.47
2022-12-11T02:18:26.295Z,96026.66
2022-12-11T02:20:58.708Z,96017.22
2022-12-11T02:23:31.304Z,96019.22
2022-12-11T02:26:12.832Z,96019.72
2022-12-11T02:28:42.102Z,96020.56
2022-12-11T02:31:27.152Z,96019.00
2022-12-11T02:34:01.081Z,96013.19
2022-12-11T02:36:30.434Z,96021.44
2022-12-11T02:38:58.398Z,96017.88
2022-12-11T02:41:26.204Z,96008.84
2022-12-11T02:43:53.768Z,96017.50
2022-12-11T02:46:21.623Z,96010.63
2022-12-11T02:48:49.907Z,96013.53
2022-12-11T02:51:17.101Z,96015.44
2022-12-11T02:53:44.978Z,96015.13
2022-12-11T02:56:18.851Z,96026.22
2022-12-11T02:58:47.707Z,96018.03
2022-12-11T03:01:14.339Z,96025.47
2022-12-11T03:03:40.862Z,96030.22
2022-12-11T03:06:09.263Z,96017.00
2022-12-11T03:08:36.177Z,96024.84
2022-12-11T03:11:02.639Z,96021.19
2022-12-11T03:13:29.060Z,96029.94
2022-12-11T03:15:55.478Z,96021.50
2022-12-11T03:18:36.065Z,96020.75
2022-12-11T03:21:02.487Z,96022.66
2022-12-11T03:23:28.898Z,96022.94
2022-12-11T03:26:01.280Z,96018.94
2022-12-11T03:28:31.948Z,96022.78
2022-12-11T03:31:01.304Z,96031.56
2022-12-11T03:33:32.399Z,96023.38
2022-12-11T03:36:06.087Z,96016.81
2022-12-11T03:38:35.541Z,96015.16
2022-12-11T03:41:02.453Z,96010.72
2022-12-11T03:43:29.845Z,96011.47
2022-12-11T03:45:57.032Z,96002.56
2022-12-11T03:48:25.385Z,96006.63
2022-12-11T03:50:52.385Z,96012.50
2022-12-11T03:53:19.105Z,96007.16
2022-12-11T03:55:46.217Z,96016.47
2022-12-11T03:58:12.781Z,96002.56
2022-12-11T04:00:39.464Z,96002.66
2022-12-11T04:03:16.023Z,96003.28
2022-12-11T04:05:47.419Z,96007.16
2022-12-11T04:08:14.258Z,95997.59
2022-12-11T04:10:41.159Z,95994.94
2022-12-11T04:13:08.173Z,96003.28
2022-12-11T04:15:35.160Z,96010.63
2022-12-11T04:18:20.499Z,96006.97
2022-12-11T04:21:05.473Z,96007.25
2022-12-11T04:23:50.352Z,96007.41
2022-12-11T04:26:17.791Z,95993.69
2022-12-11T04:28:45.032Z,96001.63
2022-12-11T04:31:12.482Z,96003.97
2022-12-11T04:33:39.460Z,96009.84
2022-12-11T04:36:06.178Z,96006.00
2022-12-11T04:38:32.666Z,96016.19
2022-12-11T04:41:04.458Z,96013.91
2022-12-11T04:43:31.018Z,96006.91
2022-12-11T04:46:05.180Z,96001.09
2022-12-11T04:48:31.763Z,96004.66
2022-12-11T04:50:58.540Z,96005.88
2022-12-11T04:53:25.374Z,96005.28
2022-12-11T04:55:52.021Z,96000.81
2022-12-11T04:58:18.484Z,95998.16
2022-12-11T05:00:44.957Z,96003.56
2022-12-11T05:03:11.506Z,96005.03
2022-12-11T05:05:39.838Z,96014.59
2022-12-11T05:08:06.391Z,96010.81
2022-12-11T05:10:32.906Z,96019.16
2022-12-11T05:12:59.349Z,96009.25
2022-12-11T05:15:25.783Z,96011.72
2022-12-11T05:17:52.446Z,96014.38
2022-12-11T05:20:18.910Z,96016.44
2022-12-11T05:22:45.363Z,96012.47
2022-12-11T05:25:12.058Z,96016.34
2022-12-11T05:27:38.704Z,96024.41
2022-12-11T05:30:05.573Z,96027.19
2022-12-11T05:32:31.995Z,96030.75
2022-12-11T05:34:58.450Z,96028.69
2022-12-11T05:37:24.900Z,96033.78
2022-12-11T05:39:51.384Z,96040.28
2022-12-11T05:42:18.154Z,96034.88
2022-12-11T05:44:44.617Z,96051.06
2022-12-11T05:47:11.040Z,96054.34
2022-12-11T05:49:37.587Z,96058.13
2022-12-11T05:52:04.098Z,96065.47
2022-12-11T05:54:30.580Z,96062.75
2022-12-11T05:56:57.000Z,96058.75
2022-12-11T05:59:23.428Z,96060.88
2022-12-11T06:01:49.930Z,96060.75
2022-12-11T06:04:16.409Z,96068.03
2022-12-11T06:06:43.837Z,96061.44
2022-12-11T06:09:14.360Z,96072.53
2022-12-11T06:11:40.849Z,96078.06
2022-12-11T06:14:07.297Z,96076.81
2022-12-11T06:16:34.040Z,96078.06
2022-12-11T06:19:00.688Z,96083.50
2022-12-11T06:21:28.349Z,96087.34
2022-12-11T06:23:55.557Z,96089.47
2022-12-11T06:26:22.594Z,96108.75
2022-12-11T06:28:49.340Z,96100.03
2022-12-11T06:31:15.987Z,96118.09
2022-12-11T06:33:42.550Z,96119.19
2022-12-11T06:36:10.619Z,96116.38
2022-12-11T06:38:37.773Z,96108.94
2022-12-11T06:41:05.055Z,96119.66
2022-12-11T06:43:31.962Z,96124.16
2022-12-11T06:46:03.850Z,96119.34
2022-12-11T06:48:31.040Z,96126.47
2022-12-11T06:50:57.865Z,96124.25
2022-12-11T06:53:24.329Z,96129.34
2022-12-11T06:55:50.784Z,96119.06
2022-12-11T06:58:17.248Z,96119.06
2022-12-11T07:00:43.805Z,96122.47
2022-12-11T07:03:10.393Z,96135.59
2022-12-11T07:05:36.889Z,96128.66
2022-12-11T07:08:03.463Z,96117.81
2022-12-11T07:10:30.024Z,96127.75
2022-12-11T07:12:56.545Z,96125.53
2022-12-11T07:15:23.014Z,96134.75
2022-12-11T07:17:49.442Z,96132.38
2022-12-11T07:20:17.172Z,96133.59
2022-12-11T07:22:46.640Z,96146.00
2022-12-11T07:25:13.679Z,96149.38
2022-12-11T07:27:41.511Z,96146.94
2022-12-11T07:30:08.425Z,96161.34
2022-12-11T07:32:34.913Z,96160.19
2022-12-11T07:35:01.372Z,96151.50
2022-12-11T07:37:27.923Z,96157.91
2022-12-11T07:39:54.654Z,96163.31
2022-12-11T07:42:21.133Z,96161.56
2022-12-11T07:44:47.582Z,96163.00
2022-12-11T07:47:13.978Z,96161.81
2022-12-11T07:49:40.459Z,96158.63
2022-12-11T07:52:06.950Z,96163.69
2022-12-11T07:54:33.404Z,96171.44
2022-12-11T07:56:59.830Z,96160.69
2022-12-11T07:59:26.331Z,96171.00
2022-12-11T08:01:52.844Z,96170.50
2022-12-11T08:04:19.453Z,96163.16
2022-12-11T08:06:45.869Z,96175.16
2022-12-11T08:09:19.106Z,96179.19
2022-12-11T08:11:48.548Z,96177.69
2022-12-11T08:14:14.965Z,96169.97
2022-12-11T08:16:43.123Z,96180.66
2022-12-11T08:19:11.146Z,96177.63
2022-12-11T08:21:38.149Z,96179.59
2022-12-11T08:24:04.950Z,96175.66
2022-12-11T08:26:32.018Z,96168.09
2022-12-11T08:28:58.749Z,96178.75
2022-12-11T08:31:25.231Z,96179.41
2022-12-11T08:33:51.769Z,96184.94
2022-12-11T08:36:19.875Z,96181.50
2022-12-11T08:38:46.840Z,96182.53
2022-12-11T08:41:21.483Z,96185.00
2022-12-11T08:43:49.241Z,96186.53
2022-12-11T08:46:15.846Z,96191.03
2022-12-11T08:48:42.898Z,96189.03
2022-12-11T08:51:12.170Z,96194.13
2022-12-11T08:53:39.553Z,96205.38
2022-12-11T08:56:13.340Z,96191.44
2022-12-11T08:58:39.982Z,96188.53
2022-12-11T09:01:14.117Z,96180.41
2022-12-11T09:03:41.067Z,96182.66
2022-12-11T09:06:08.900Z,96179.31
2022-12-11T09:08:36.140Z,96179.63
2022-12-11T09:11:06.780Z,96167.00
2022-12-11T09:13:33.409Z,96168.72
2022-12-11T09:16:00.487Z,96174.81
2022-12-11T09:18:27.270Z,96183.66
2022-12-11T09:21:04.310Z,96186.19
2022-12-11T09:23:30.789Z,96183.03
2022-12-11T09:25:57.444Z,96180.09
2022-12-11T09:28:24.368Z,96182.78
2022-12-11T09:30:51.351Z,96185.19
2022-12-11T09:33:17.861Z,96187.19
2022-12-11T09:35:44.377Z,96193.50
2022-12-11T09:38:10.821Z,96184.78
2022-12-11T09:40:42.017Z,96181.81
2022-12-11T09:43:28.760Z,96184.38
2022-12-11T09:45:56.244Z,96194.16
2022-12-11T09:48:24.181Z,96187.63
2022-12-11T09:50:53.895Z,96188.19
2022-12-11T09:53:33.925Z,96178.84
2022-12-11T09:56:26.979Z,96188.47
2022-12-11T09:59:12.293Z,96191.47
2022-12-11T10:01:38.874Z,96199.66
2022-12-11T10:04:18.613Z,96188.38
2022-12-11T10:06:51.093Z,96185.16
2022-12-11T10:09:24.321Z,96184.22
2022-12-11T10:11:58.995Z,96172.72
2022-12-11T10:14:45.754Z,96177.03
2022-12-11T10:17:12.249Z,96185.66
2022-12-11T10:19:39.899Z,96187.03
2022-12-11T10:22:12.221Z,96181.69
2022-12-11T10:27:35.564Z,96178.06
2022-12-11T10:30:08.145Z,96184.75
2022-12-11T10:32:44.053Z,96184.53
2022-12-11T10:35:17.538Z,96179.84
2022-12-11T10:37:43.997Z,96187.75
2022-12-11T10:40:11.623Z,96188.13
2022-12-11T10:42:41.252Z,96185.09
2022-12-11T10:45:16.051Z,96188.13
2022-12-11T10:47:42.533Z,96184.38
2022-12-11T10:50:22.473Z,96187.84
2022-12-11T10:52:48.905Z,96197.22
2022-12-11T10:55:15.341Z,96208.59
2022-12-11T10:57:42.715Z,96205.94
2022-12-11T11:00:28.057Z,96193.19
2022-12-11T11:02:55.126Z,96188.13
2022-12-11T11:05:29.450Z,96184.53
2022-12-11T11:08:12.836Z,96183.53
2022-12-11T11:10:49.841Z,96181.84
2022-12-11T11:13:16.301Z,96170.84
2022-12-11T11:15:43.001Z,96169.38
2022-12-11T11:18:16.936Z,96172.06
2022-12-11T11:20:47.896Z,96163.50
2022-12-11T11:23:16.187Z,96165.81
2022-12-11T11:25:50.086Z,96169.22
2022-12-11T11:28:27.029Z,96164.19
2022-12-11T11:30:56.231Z,96166.53
2022-12-11T11:33:23.805Z,96162.09
2022-12-11T11:36:03.879Z,96165.66
2022-12-11T11:38:39.456Z,96170.81
2022-12-11T11:41:14.650Z,96167.00
2022-12-11T11:43:53.918Z,96158.81
2022-12-11T11:46:23.758Z,96165.16
2022-12-11T11:49:00.263Z,96163.13
2022-12-11T11:51:46.291Z,96161.44
2022-12-11T11:54:23.929Z,96161.94
2022-12-11T11:56:51.738Z,96163.78
2022-12-11T11:59:24.228Z,96156.41
2022-12-11T12:01:51.837Z,96152.75
2022-12-11T12:04:18.322Z,96150.81
2022-12-11T12:06:57.196Z,96151.44
2022-12-11T12:09:29.689Z,96150.22
2022-12-11T12:12:05.355Z,96152.19
2022-12-11T12:14:54.503Z,96149.66
2022-12-11T12:17:23.918Z,96152.72
2022-12-11T12:19:55.191Z,96146.06
2022-12-11T12:22:40.431Z,96151.88
2022-12-11T12:25:22.480Z,96154.22
2022-12-11T12:27:53.929Z,96153.09
2022-12-11T12:30:23.297Z,96145.63
2022-12-11T12:33:09.124Z,96154.44
2022-12-11T12:35:36.939Z,96152.31
2022-12-11T12:38:06.177Z,96157.59
2022-12-11T12:40:41.983Z,96154.78
2022-12-11T12:43:11.634Z,96146.09
2022-12-11T12:45:47.402Z,96150.31
2022-12-11T12:48:13.925Z,96153.03
2022-12-11T12:50:42.688Z,96145.44
2022-12-11T12:53:14.098Z,96140.53
2022-12-11T12:55:40.679Z,96147.41
2022-12-11T12:58:07.874Z,96141.31
2022-12-11T13:00:42.428Z,96153.75
2022-12-11T13:03:13.917Z,96152.91
2022-12-11T13:05:42.107Z,96149.69
2022-12-11T13:08:09.868Z,96148.28
2022-12-11T13:10:37.720Z,96163.94
2022-12-11T13:13:05.153Z,96159.25
2022-12-11T13:15:43.650Z,96156.38
2022-12-11T13:18:28.930Z,96166.41
2022-12-11T13:20:55.341Z,96162.53
2022-12-11T13:23:32.704Z,96171.25
2022-12-11T13:26:00.296Z,96173.97
2022-12-11T13:28:28.494Z,96177.72
2022-12-11T13:31:00.990Z,96187.59
2022-12-11T13:33:29.992Z,96188.50
2022-12-11T13:36:15.730Z,96194.94
2022-12-11T13:38:49.389Z,96197.84
2022-12-11T13:41:16.591Z,96192.66
2022-12-11T13:43:46.482Z,96196.16
2022-12-11T13:46:15.046Z,96206.53
2022-12-11T13:48:47.883Z,96208.34
2022-12-11T13:51:18.956Z,96226.31
2022-12-11T13:53:45.417Z,96220.47
2022-12-11T13:56:21.906Z,96225.56
2022-12-11T13:58:48.861Z,96235.31
2022-12-11T14:01:17.167Z,96228.63
2022-12-11T14:03:48.723Z,96233.06
2022-12-11T14:06:18.807Z,96238.56
2022-12-11T14:08:48.039Z,96244.13
2022-12-11T14:11:37.921Z,96254.56
2022-12-11T14:14:06.650Z,96249.53
2022-12-11T14:16:33.457Z,96264.00
2022-12-11T14:19:05.898Z,96263.22
2022-12-11T14:21:32.349Z,96271.69
2022-12-11T14:24:00.167Z,96275.50
2022-12-11T14:26:30.368Z,96283.97
2022-12-11T14:28:57.012Z,96286.06
2022-12-11T14:31:26.496Z,96287.88
2022-12-11T14:33:55.734Z,96299.38
2022-12-11T14:36:22.880Z,96289.88
2022-12-11T14:38:55.337Z,96293.22
2022-12-11T14:41:25.126Z,96298.41
2022-12-11T14:43:54.281Z,96306.97
2022-12-11T14:46:23.702Z,96301.53
2022-12-11T14:49:00.602Z,96311.75
2022-12-11T14:51:30.010Z,96317.59
2022-12-11T14:53:56.547Z,96313.97
2022-12-11T14:56:25.614Z,96320.44
2022-12-11T14:59:00.341Z,96332.19
2022-12-11T15:01:31.182Z,96329.81
2022-12-11T15:04:16.153Z,96335.25
2022-12-11T15:06:47.288Z,96336.09
2022-12-11T15:09:32.621Z,96340.56
2022-12-11T15:12:07.616Z,96339.53
2022-12-11T15:14:34.294Z,96352.31
2022-12-11T15:17:00.781Z,96346.47
2022-12-11T15:19:31.680Z,96355.00
2022-12-11T15:22:05.517Z,96353.75
2022-12-11T15:24:40.348Z,96359.06
2022-12-11T15:27:23.869Z,96351.75
2022-12-11T15:29:50.377Z,96361.56
2022-12-11T15:32:19.170Z,96361.03
2022-12-11T15:34:53.328Z,96372.44
2022-12-11T15:37:22.940Z,96373.09
2022-12-11T15:39:49.421Z,96387.72
2022-12-11T15:42:17.996Z,96382.16
2022-12-11T15:44:44.644Z,96387.47
2022-12-11T15:47:11.872Z,96394.16
2022-12-11T15:49:38.314Z,96400.88
2022-12-11T15:52:04.901Z,96395.00
2022-12-11T15:54:31.458Z,96407.34
2022-12-11T15:56:59.397Z,96400.59
2022-12-11T15:59:25.901Z,96400.75
2022-12-11T16:01:52.364Z,96417.81
2022-12-11T16:04:18.943Z,96420.88
2022-12-11T16:06:46.854Z,96415.16
2022-12-11T16:09:13.568Z,96418.28
2022-12-11T16:11:39.977Z,96421.59
2022-12-11T16:14:06.409Z,96425.47
2022-12-11T16:16:33.897Z,96424.59
2022-12-11T16:19:00.775Z,96417.72
2022-12-11T16:21:27.261Z,96423.50
2022-12-11T16:23:53.705Z,96422.69
2022-12-11T16:26:20.291Z,96425.00
2022-12-11T16:28:46.755Z,96417.38
2022-12-11T16:31:14.168Z,96423.59
2022-12-11T16:33:40.732Z,96424.34
2022-12-11T16:36:14.265Z,96425.28
2022-12-11T16:38:40.829Z,96432.97
2022-12-11T16:41:07.247Z,96436.53
2022-12-11T16:43:33.736Z,96432.59
2022-12-11T16:46:00.206Z,96429.28
2022-12-11T16:48:26.703Z,96427.75
2022-12-11T16:50:54.424Z,96437.94
2022-12-11T16:53:21.085Z,96434.25
2022-12-11T16:55:47.585Z,96427.25
2022-12-11T16:58:19.955Z,96435.59
2022-12-11T17:00:47.274Z,96432.09
2022-12-11T17:03:14.193Z,96434.53
2022-12-11T17:05:41.370Z,96437.09
2022-12-11T17:08:08.306Z,96434.94
2022-12-11T17:10:38.523Z,96435.06
2022-12-11T17:13:04.957Z,96443.47
2022-12-11T17:15:31.478Z,96433.53
2022-12-11T17:17:58.021Z,96419.72
2022-12-11T17:20:24.432Z,96437.34
2022-12-11T17:22:50.902Z,96426.13
2022-12-11T17:25:22.214Z,96426.09
2022-12-11T17:27:49.408Z,96432.25
2022-12-11T17:30:15.914Z,96429.63
2022-12-11T17:32:46.690Z,96429.75
2022-12-11T17:35:13.748Z,96423.94
2022-12-11T17:37:40.509Z,96433.63
2022-12-11T17:40:07.137Z,96433.03
2022-12-11T17:42:33.666Z,96432.69
2022-12-11T17:45:00.104Z,96424.69
2022-12-11T17:47:26.592Z,96435.56
2022-12-11T17:49:53.129Z,96431.56
2022-12-11T17:52:19.714Z,96436.13
2022-12-11T17:54:46.201Z,96442.56
2022-12-11T17:57:12.679Z,96441.34
2022-12-11T17:59:39.153Z,96433.97
2022-12-11T18:02:06.160Z,96441.09
2022-12-11T18:04:32.596Z,96436.28
2022-12-11T18:06:59.081Z,96434.66
2022-12-11T18:09:25.545Z,96433.88
2022-12-11T18:11:52.117Z,96430.41
2022-12-11T18:14:18.538Z,96427.34
2022-12-11T18:16:45.033Z,96438.47
2022-12-11T18:19:12.134Z,96444.97
2022-12-11T18:21:41.313Z,96438.44
2022-12-11T18:24:08.748Z,96441.78
2022-12-11T18:26:35.926Z,96445.63
2022-12-11T18:29:02.377Z,96450.97
2022-12-11T18:31:29.362Z,96442.56
2022-12-11T18:33:55.972Z,96433.88
2022-12-11T18:36:22.461Z,96439.63
2022-12-11T18:38:49.030Z,96431.94
2022-12-11T18:41:16.528Z,96438.66
2022-12-11T18:43:43.312Z,96436.00
2022-12-11T18:46:11.084Z,96435.78
2022-12-11T18:48:37.597Z,96433.47
2022-12-11T18:51:09.104Z,96446.34
2022-12-11T18:53:36.286Z,96446.34
2022-12-11T18:56:05.550Z,96445.09
2022-12-11T18:58:31.976Z,96446.34
2022-12-11T19:00:58.643Z,96449.00
2022-12-11T19:03:25.112Z,96446.06
2022-12-11T19:05:51.563Z,96448.03
2022-12-11T19:08:18.210Z,96451.38
2022-12-11T19:10:45.969Z,96456.28
2022-12-11T19:13:13.108Z,96454.34
2022-12-11T19:15:40.529Z,96460.31
2022-12-11T19:18:07.214Z,96456.44
2022-12-11T19:20:49.209Z,96452.66
2022-12-11T19:23:17.510Z,96445.38
2022-12-11T19:25:45.241Z,96442.56
2022-12-11T19:28:12.134Z,96445.91
2022-12-11T19:30:42.970Z,96446.13
2022-12-11T19:33:09.545Z,96440.94
2022-12-11T19:35:36.455Z,96437.75
2022-12-11T19:38:03.160Z,96433.63
2022-12-11T19:40:29.606Z,96436.06
2022-12-11T19:42:56.085Z,96437.13
2022-12-11T19:45:22.678Z,96441.59
2022-12-11T19:47:49.102Z,96433.78
2022-12-11T19:50:15.670Z,96427.75
2022-12-11T19:52:46.188Z,96432.94
2022-12-11T19:55:14.938Z,96434.19
2022-12-11T19:57:41.466Z,96431.09
2022-12-11T20:00:08.236Z,96427.28
2022-12-11T20:02:38.756Z,96429.56
2022-12-11T20:05:05.588Z,96434.63
2022-12-11T20:07:32.024Z,96422.00
2022-12-11T20:10:00.141Z,96430.56
2022-12-11T20:12:26.629Z,96435.59
2022-12-11T20:14:53.068Z,96434.75
2022-12-11T20:17:19.581Z,96431.25
2022-12-11T20:19:46.156Z,96427.56
2022-12-11T20:22:12.634Z,96429.09
2022-12-11T20:24:39.120Z,96425.75
2022-12-11T20:27:05.639Z,96435.59
2022-12-11T20:29:32.075Z,96433.91
2022-12-11T20:32:00.336Z,96432.25
2022-12-11T20:34:27.081Z,96438.97
2022-12-11T20:36:54.099Z,96442.78
2022-12-11T20:39:20.612Z,96448.84
2022-12-11T20:41:47.148Z,96449.59
2022-12-11T20:44:13.644Z,96459.03
2022-12-11T20:46:40.791Z,96457.09
2022-12-11T20:49:12.644Z,96457.00
2022-12-11T20:51:39.659Z,96459.28
2022-12-11T20:54:06.360Z,96465.78
2022-12-11T20:56:32.915Z,96459.53
2022-12-11T20:59:00.011Z,96461.69
2022-12-11T21:01:29.436Z,96460.97
2022-12-11T21:03:56.337Z,96461.31
2022-12-11T21:06:28.355Z,96471.69
2022-12-11T21:08:54.868Z,96469.16
2022-12-11T21:11:21.648Z,96466.00
2022-12-11T21:13:49.923Z,96467.34
2022-12-11T21:16:17.545Z,96463.34
2022-12-11T21:18:46.307Z,96459.75
2022-12-11T21:21:12.938Z,96456.16
2022-12-11T21:23:39.465Z,96472.69
2022-12-11T21:26:05.917Z,96472.53
2022-12-11T21:28:35.528Z,96476.13
2022-12-11T21:31:04.849Z,96471.69
2022-12-11T21:33:31.382Z,96476.50
2022-12-11T21:35:58.243Z,96484.50
2022-12-11T21:38:25.088Z,96484.25
2022-12-11T21:40:52.413Z,96476.28
2022-12-11T21:43:19.071Z,96480.44
2022-12-11T21:46:05.059Z,96482.72
2022-12-11T21:48:31.816Z,96485.47
2022-12-11T21:51:18.838Z,96489.81
2022-12-11T21:53:45.629Z,96489.56
2022-12-11T21:56:13.584Z,96491.53
2022-12-11T21:58:41.080Z,96506.72
2022-12-11T22:01:13.354Z,96495.28
2022-12-11T22:03:39.845Z,96503.66
2022-12-11T22:06:06.472Z,96499.47
2022-12-11T22:08:33.085Z,96504.19
2022-12-11T22:11:01.121Z,96506.72
2022-12-11T22:13:28.031Z,96507.19
2022-12-11T22:15:55.112Z,96515.34
2022-12-11T22:18:21.789Z,96505.28
2022-12-11T22:20:48.234Z,96515.34
2022-12-11T22:23:14.781Z,96517.31
2022-12-11T22:25:41.251Z,96516.78
2022-12-11T22:28:07.654Z,96507.97
2022-12-11T22:30:34.172Z,96502.75
2022-12-11T22:33:00.705Z,96506.94
2022-12-11T22:35:27.607Z,96510.53
2022-12-11T22:37:54.293Z,96506.44
2022-12-11T22:40:20.780Z,96510.31
2022-12-11T22:42:47.346Z,96503.81
2022-12-11T22:45:14.285Z,96498.53
2022-12-11T22:47:40.900Z,96503.13
2022-12-11T22:50:07.893Z,96502.03
2022-12-11T22:52:34.722Z,96500.97
2022-12-11T22:55:01.305Z,96495.75
2022-12-11T22:57:27.899Z,96504.78
2022-12-11T22:59:54.443Z,96505.03
2022-12-11T23:02:21.081Z,96502.03
2022-12-11T23:04:48.055Z,96500.91
2022-12-11T23:07:14.551Z,96509.47
2022-12-11T23:09:41.016Z,96504.91
2022-12-11T23:12:07.998Z,96505.72
2022-12-11T23:14:34.432Z,96510.69
2022-12-11T23:17:00.953Z,96502.97
2022-12-11T23:19:27.941Z,96500.41
2022-12-11T23:21:54.845Z,96506.94
2022-12-11T23:24:22.418Z,96509.38
2022-12-11T23:26:48.886Z,96504.81
2022-12-11T23:29:15.292Z,96509.84
2022-12-11T23:31:41.732Z,96512.13
2022-12-11T23:34:08.193Z,96511.16
2022-12-11T23:36:34.757Z,96515.34
2022-12-11T23:39:01.181Z,96518.50
2022-12-11T23:41:27.693Z,96517.31
2022-12-11T23:43:54.218Z,96519.31
2022-12-11T23:46:21.975Z,96520.75
2022-12-11T23:48:48.945Z,96521.41
2022-12-11T23:51:17.116Z,96518.22
2022-12-11T23:53:44.010Z,96524.22
2022-12-11T23:56:15.660Z,96521.97
2022-12-11T23:58:42.160Z,96521.22
